createdAt,value
2019-05-02T00:00:29.848Z,9.37
2019-05-02T00:02:23.990Z,9.41
2019-05-02T00:03:22.708Z,9.39
2019-05-02T00:05:16.628Z,9.54
2019-05-02T00:06:16.577Z,9.54
2019-05-02T00:08:09.470Z,9.40
2019-05-02T00:09:11.175Z,9.34
2019-05-02T00:10:55.140Z,9.25
2019-05-02T00:12:02.287Z,9.26
2019-05-02T00:13:55.947Z,9.11
2019-05-02T00:14:47.975Z,9.13
2019-05-02T00:15:47.971Z,9.14
2019-05-02T00:16:49.294Z,9.18
2019-05-02T00:17:47.915Z,9.06
2019-05-02T00:18:55.530Z,9.00
2019-05-02T00:20:40.964Z,8.99
2019-05-02T00:21:42.922Z,8.94
2019-05-02T00:23:33.624Z,8.91
2019-05-02T00:24:33.982Z,8.78
2019-05-02T00:26:26.678Z,8.74
2019-05-02T00:27:26.443Z,8.71
2019-05-02T00:28:26.415Z,8.58
2019-05-02T00:29:26.393Z,8.44
2019-05-02T00:30:30.069Z,8.38
2019-05-02T00:31:26.350Z,8.44
2019-05-02T00:32:26.323Z,8.23
2019-05-02T00:33:29.329Z,8.20
2019-05-02T00:34:26.277Z,8.03
2019-05-02T00:35:26.255Z,8.06
2019-05-02T00:36:26.226Z,7.97
2019-05-02T00:37:26.677Z,7.93
2019-05-02T00:38:26.182Z,7.85
2019-05-02T00:39:26.158Z,7.80
2019-05-02T00:40:27.744Z,7.72
2019-05-02T00:41:26.101Z,7.73
2019-05-02T00:42:26.083Z,7.75
2019-05-02T00:43:28.988Z,7.79
2019-05-02T00:44:26.060Z,7.94
2019-05-02T00:45:26.071Z,8.00
2019-05-02T00:46:30.214Z,8.16
2019-05-02T00:47:33.141Z,8.27
2019-05-02T00:49:18.864Z,8.49
2019-05-02T00:50:35.991Z,8.63
2019-05-02T00:52:11.733Z,8.64
2019-05-02T00:53:18.854Z,8.63
2019-05-02T00:55:04.576Z,8.66
2019-05-02T00:56:11.695Z,8.71
2019-05-02T00:58:00.407Z,8.76
2019-05-02T00:59:02.441Z,8.79
2019-05-02T01:00:55.132Z,8.89
2019-05-02T01:01:54.790Z,9.04
2019-05-02T01:03:52.147Z,9.31
2019-05-02T01:04:47.614Z,9.40
2019-05-02T01:06:44.670Z,9.58
2019-05-02T01:07:42.002Z,9.74
2019-05-02T01:09:35.673Z,9.91
2019-05-02T01:10:35.346Z,9.91
2019-05-02T01:12:28.242Z,10.05
2019-05-02T01:13:28.215Z,10.10
2019-05-02T01:15:21.122Z,9.97
2019-05-02T01:16:21.070Z,9.92
2019-05-02T01:18:14.947Z,9.74
2019-05-02T01:19:16.158Z,9.51
2019-05-02T01:21:08.832Z,9.51
2019-05-02T01:22:10.407Z,9.39
2019-05-02T01:24:14.714Z,9.39
2019-05-02T01:25:15.752Z,9.34
2019-05-02T01:27:09.009Z,9.55
2019-05-02T01:28:12.588Z,9.51
2019-05-02T01:29:08.962Z,9.54
2019-05-02T01:30:08.940Z,9.50
2019-05-02T01:31:13.237Z,9.55
2019-05-02T01:32:08.890Z,9.61
2019-05-02T01:33:08.863Z,9.61
2019-05-02T01:34:13.060Z,9.47
2019-05-02T01:35:08.815Z,9.50
2019-05-02T01:36:08.798Z,9.56
2019-05-02T01:37:12.437Z,9.48
2019-05-02T01:38:08.740Z,9.37
2019-05-02T01:39:08.842Z,9.34
2019-05-02T01:40:13.038Z,9.28
2019-05-02T01:41:08.665Z,9.11
2019-05-02T01:42:08.647Z,8.99
2019-05-02T01:43:08.627Z,8.97
2019-05-02T01:44:08.600Z,8.89
2019-05-02T01:45:11.279Z,8.85
2019-05-02T01:46:08.553Z,8.79
2019-05-02T01:47:08.529Z,8.69
2019-05-02T01:48:09.862Z,8.63
2019-05-02T01:49:08.476Z,8.56
2019-05-02T01:50:08.457Z,8.44
2019-05-02T01:51:09.933Z,8.46
2019-05-02T01:52:08.424Z,8.45
2019-05-02T01:53:08.384Z,8.41
2019-05-02T01:54:10.088Z,8.28
2019-05-02T01:55:08.335Z,8.20
2019-05-02T01:56:08.311Z,8.20
2019-05-02T01:57:08.803Z,8.12
2019-05-02T01:58:08.262Z,8.12
2019-05-02T01:59:08.241Z,8.09
2019-05-02T02:00:09.580Z,8.18
2019-05-02T02:01:08.195Z,8.27
2019-05-02T02:02:08.168Z,8.26
2019-05-02T02:03:09.204Z,8.26
2019-05-02T02:04:08.115Z,8.31
2019-05-02T02:05:08.100Z,8.27
2019-05-02T02:06:10.003Z,8.28
2019-05-02T02:07:08.049Z,8.27
2019-05-02T02:08:08.021Z,8.19
2019-05-02T02:09:09.630Z,8.10
2019-05-02T02:10:07.979Z,8.05
2019-05-02T02:11:07.950Z,8.05
2019-05-02T02:12:09.876Z,7.97
2019-05-02T02:13:07.909Z,7.93
2019-05-02T02:14:12.694Z,7.97
2019-05-02T02:15:07.877Z,8.00
2019-05-02T02:16:07.831Z,8.03
2019-05-02T02:17:10.085Z,8.06
2019-05-02T02:18:07.780Z,8.08
2019-05-02T02:19:07.752Z,7.94
2019-05-02T02:20:09.773Z,7.98
2019-05-02T02:21:07.711Z,7.95
2019-05-02T02:22:07.700Z,7.80
2019-05-02T02:23:10.208Z,7.91
2019-05-02T02:24:07.632Z,7.82
2019-05-02T02:25:07.608Z,7.82
2019-05-02T02:26:12.077Z,7.88
2019-05-02T02:27:07.561Z,7.73
2019-05-02T02:28:07.537Z,7.80
2019-05-02T02:29:09.213Z,7.67
2019-05-02T02:30:07.494Z,7.70
2019-05-02T02:31:07.947Z,7.69
2019-05-02T02:32:07.446Z,7.66
2019-05-02T02:33:09.406Z,7.70
2019-05-02T02:34:07.392Z,7.63
2019-05-02T02:35:09.900Z,7.69
2019-05-02T02:36:07.349Z,7.67
2019-05-02T02:37:13.034Z,7.69
2019-05-02T02:38:07.296Z,7.61
2019-05-02T02:39:13.910Z,7.61
2019-05-02T02:40:07.248Z,7.61
2019-05-02T02:41:13.329Z,7.57
2019-05-02T02:42:07.201Z,7.56
2019-05-02T02:43:29.991Z,7.50
2019-05-02T02:44:07.159Z,7.45
2019-05-02T02:45:12.889Z,7.42
2019-05-02T02:46:07.101Z,7.39
2019-05-02T02:47:11.933Z,7.42
2019-05-02T02:48:07.052Z,7.42
2019-05-02T02:49:07.029Z,7.36
2019-05-02T02:50:07.001Z,7.39
2019-05-02T02:51:06.976Z,7.40
2019-05-02T02:52:07.098Z,7.36
2019-05-02T02:53:06.933Z,7.29
2019-05-02T02:54:06.906Z,7.32
2019-05-02T02:55:06.884Z,7.43
2019-05-02T02:56:06.858Z,7.45
2019-05-02T02:57:06.836Z,7.53
2019-05-02T02:58:06.831Z,7.43
2019-05-02T02:59:06.784Z,7.43
2019-05-02T03:00:08.300Z,7.43
2019-05-02T03:01:06.755Z,7.35
2019-05-02T03:02:11.646Z,7.31
2019-05-02T03:03:06.683Z,7.38
2019-05-02T03:04:09.084Z,7.31
2019-05-02T03:05:06.634Z,7.33
2019-05-02T03:06:08.185Z,7.24
2019-05-02T03:07:06.587Z,7.31
2019-05-02T03:08:07.266Z,7.20
2019-05-02T03:09:06.541Z,7.25
2019-05-02T03:10:08.300Z,7.21
2019-05-02T03:11:06.577Z,7.13
2019-05-02T03:12:06.461Z,7.06
2019-05-02T03:13:06.449Z,7.06
2019-05-02T03:14:09.266Z,7.10
2019-05-02T03:15:06.391Z,7.11
2019-05-02T03:16:07.553Z,7.18
2019-05-02T03:17:06.356Z,7.18
2019-05-02T03:18:06.321Z,7.21
2019-05-02T03:19:06.291Z,7.32
2019-05-02T03:20:06.264Z,7.33
2019-05-02T03:21:06.244Z,7.24
2019-05-02T03:22:06.217Z,7.20
2019-05-02T03:23:06.195Z,7.18
2019-05-02T03:24:06.219Z,7.13
2019-05-02T03:25:06.140Z,7.11
2019-05-02T03:26:07.813Z,7.06
2019-05-02T03:27:06.110Z,7.10
2019-05-02T03:28:17.905Z,7.06
2019-05-02T03:29:06.050Z,7.05
2019-05-02T03:30:06.030Z,7.03
2019-05-02T03:31:21.184Z,7.06
2019-05-02T03:32:22.162Z,7.07
2019-05-02T03:33:11.570Z,7.07
2019-05-02T03:34:05.937Z,7.31
2019-05-02T03:35:05.905Z,7.28
2019-05-02T03:36:25.755Z,7.32
2019-05-02T03:37:10.139Z,7.35
2019-05-02T03:38:05.824Z,7.23
2019-05-02T03:39:13.562Z,7.23
2019-05-02T03:40:05.779Z,7.29
2019-05-02T03:41:05.786Z,7.18
2019-05-02T03:42:05.758Z,7.20
2019-05-02T03:43:05.701Z,7.14
2019-05-02T03:44:11.104Z,7.14
2019-05-02T03:45:05.703Z,7.15
2019-05-02T03:46:05.625Z,7.06
2019-05-02T03:47:05.610Z,7.03
2019-05-02T03:48:05.578Z,6.99
2019-05-02T03:49:09.287Z,7.06
2019-05-02T03:50:08.862Z,6.93
2019-05-02T03:51:12.454Z,7.02
2019-05-02T03:52:05.974Z,7.00
2019-05-02T03:53:05.500Z,7.02
2019-05-02T03:54:07.347Z,7.00
2019-05-02T03:55:05.400Z,7.02
2019-05-02T03:56:11.262Z,7.02
2019-05-02T03:57:05.373Z,7.00
2019-05-02T03:58:12.788Z,7.00
2019-05-02T03:59:05.301Z,7.03
2019-05-02T04:00:21.300Z,7.18
2019-05-02T04:02:14.096Z,7.20
2019-05-02T04:03:02.036Z,7.32
2019-05-02T04:03:59.689Z,7.36
2019-05-02T04:05:00.520Z,7.39
2019-05-02T04:05:59.665Z,7.40
2019-05-02T04:07:00.970Z,7.35
2019-05-02T04:07:59.584Z,7.35
2019-05-02T04:09:08.107Z,7.47
2019-05-02T04:10:59.626Z,7.45
2019-05-02T04:12:01.479Z,7.36
2019-05-02T04:13:46.709Z,7.40
2019-05-02T04:14:56.041Z,7.29
2019-05-02T04:16:41.165Z,7.42
2019-05-02T04:17:41.039Z,7.43
2019-05-02T04:19:34.912Z,7.45
2019-05-02T04:20:34.385Z,7.45
2019-05-02T04:22:30.310Z,7.53
2019-05-02T04:23:30.275Z,7.50
2019-05-02T04:25:27.891Z,7.54
2019-05-02T04:26:23.607Z,7.57
2019-05-02T04:28:24.098Z,7.57
2019-05-02T04:29:24.707Z,7.57
2019-05-02T04:31:31.429Z,7.67
2019-05-02T04:32:28.507Z,7.63
2019-05-02T04:33:29.055Z,7.73
2019-05-02T04:34:28.423Z,7.83
2019-05-02T04:35:28.706Z,7.79
2019-05-02T04:36:28.365Z,7.94
2019-05-02T04:37:28.349Z,8.03
2019-05-02T04:38:39.270Z,8.05
2019-05-02T04:39:28.717Z,8.05
2019-05-02T04:40:28.447Z,8.09
2019-05-02T04:41:30.333Z,8.08
2019-05-02T04:42:29.401Z,8.01
2019-05-02T04:43:28.732Z,8.12
2019-05-02T04:44:29.727Z,8.10
2019-05-02T04:45:51.747Z,8.09
2019-05-02T04:47:22.364Z,8.01
2019-05-02T04:48:21.908Z,8.12
2019-05-02T04:50:19.898Z,8.15
2019-05-02T04:51:20.209Z,8.06
2019-05-02T04:53:12.078Z,8.06
2019-05-02T04:54:21.947Z,8.12
2019-05-02T04:56:10.120Z,8.03
2019-05-02T04:57:08.221Z,8.05
2019-05-02T04:59:01.834Z,8.09
2019-05-02T05:00:06.326Z,8.16
2019-05-02T05:01:57.589Z,8.19
2019-05-02T05:02:53.427Z,8.18
2019-05-02T05:04:49.204Z,8.24
2019-05-02T05:05:48.207Z,8.36
2019-05-02T05:07:45.818Z,8.46
2019-05-02T05:08:41.565Z,8.61
2019-05-02T05:10:41.491Z,9.04
2019-05-02T05:11:38.033Z,9.25
2019-05-02T05:13:30.767Z,9.58
2019-05-02T05:14:38.278Z,9.59
2019-05-02T05:15:38.301Z,9.68
2019-05-02T05:16:30.472Z,9.92
2019-05-02T05:17:32.947Z,10.12
2019-05-02T05:18:30.424Z,10.28
2019-05-02T05:19:32.716Z,10.56
2019-05-02T05:20:30.374Z,10.82
2019-05-02T05:21:30.346Z,10.97
2019-05-02T05:22:30.332Z,11.07
2019-05-02T05:23:30.311Z,11.18
2019-05-02T05:24:32.841Z,11.30
2019-05-02T05:25:30.267Z,11.54
2019-05-02T05:26:33.766Z,11.62
2019-05-02T05:27:30.216Z,11.70
2019-05-02T05:28:30.196Z,11.69
2019-05-02T05:29:30.179Z,11.78
2019-05-02T05:30:30.163Z,11.75
2019-05-02T05:31:30.127Z,11.84
2019-05-02T05:32:30.125Z,11.84
2019-05-02T05:33:30.102Z,11.95
2019-05-02T05:34:32.643Z,11.94
2019-05-02T05:35:30.046Z,11.88
2019-05-02T05:36:33.899Z,11.97
2019-05-02T05:37:30.000Z,11.87
2019-05-02T05:38:32.685Z,11.66
2019-05-02T05:39:29.960Z,11.43
2019-05-02T05:40:32.021Z,11.23
2019-05-02T05:41:29.917Z,11.08
2019-05-02T05:42:33.058Z,11.08
2019-05-02T05:43:29.874Z,11.07
2019-05-02T05:44:32.646Z,11.10
2019-05-02T05:45:29.834Z,11.22
2019-05-02T05:46:33.352Z,11.25
2019-05-02T05:47:29.788Z,11.41
2019-05-02T05:48:32.162Z,11.51
2019-05-02T05:49:29.761Z,11.73
2019-05-02T05:50:32.159Z,11.90
2019-05-02T05:51:29.708Z,12.07
2019-05-02T05:52:32.968Z,12.27
2019-05-02T05:53:29.669Z,12.49
2019-05-02T05:54:33.046Z,12.94
2019-05-02T05:55:31.627Z,13.11
2019-05-02T05:56:32.562Z,13.03
2019-05-02T05:57:29.618Z,13.18
2019-05-02T05:58:29.582Z,13.09
2019-05-02T05:59:32.039Z,13.19
2019-05-02T06:00:29.543Z,13.31
2019-05-02T06:01:34.406Z,13.50
2019-05-02T06:02:29.502Z,13.74
2019-05-02T06:03:29.481Z,14.18
2019-05-02T06:04:33.072Z,14.48
2019-05-02T06:05:33.120Z,14.89
2019-05-02T06:06:29.422Z,14.68
2019-05-02T06:07:33.583Z,14.33
2019-05-02T06:08:29.391Z,14.03
2019-05-02T06:09:31.143Z,13.90
2019-05-02T06:10:29.353Z,13.89
2019-05-02T06:11:29.339Z,14.26
2019-05-02T06:12:30.380Z,14.65
2019-05-02T06:13:29.307Z,14.99
2019-05-02T06:14:29.302Z,15.31
2019-05-02T06:15:29.265Z,15.15
2019-05-02T06:16:29.247Z,15.09
2019-05-02T06:17:30.438Z,15.29
2019-05-02T06:18:29.212Z,15.39
2019-05-02T06:19:29.196Z,15.11
2019-05-02T06:20:30.556Z,14.78
2019-05-02T06:21:29.161Z,14.59
2019-05-02T06:22:29.142Z,14.73
2019-05-02T06:23:31.035Z,15.03
2019-05-02T06:24:29.112Z,15.17
2019-05-02T06:25:34.376Z,15.04
2019-05-02T06:26:29.077Z,15.06
2019-05-02T06:27:30.486Z,14.79
2019-05-02T06:28:29.044Z,14.96
2019-05-02T06:29:29.032Z,15.15
2019-05-02T06:30:31.018Z,15.31
2019-05-02T06:31:28.996Z,15.46
2019-05-02T06:32:28.979Z,15.68
2019-05-02T06:33:30.536Z,15.79
2019-05-02T06:34:28.947Z,16.12
2019-05-02T06:35:28.934Z,16.38
2019-05-02T06:36:31.965Z,16.47
2019-05-02T06:37:28.899Z,16.64
2019-05-02T06:38:28.887Z,17.15
2019-05-02T06:39:32.061Z,17.41
2019-05-02T06:40:28.857Z,17.89
2019-05-02T06:41:28.837Z,18.08
2019-05-02T06:42:32.676Z,18.04
2019-05-02T06:43:28.810Z,17.72
2019-05-02T06:44:28.793Z,17.19
2019-05-02T06:45:32.207Z,17.39
2019-05-02T06:46:29.716Z,17.67
2019-05-02T06:47:28.753Z,17.67
2019-05-02T06:48:28.739Z,17.52
2019-05-02T06:49:28.723Z,17.83
2019-05-02T06:50:33.266Z,17.41
2019-05-02T06:51:28.699Z,17.86
2019-05-02T06:52:32.738Z,18.08
2019-05-02T06:53:28.664Z,18.53
2019-05-02T06:54:28.654Z,18.80
2019-05-02T06:55:35.998Z,18.77
2019-05-02T06:56:28.630Z,19.16
2019-05-02T06:57:28.615Z,19.26
2019-05-02T06:58:28.609Z,18.96
2019-05-02T06:59:28.592Z,18.55
2019-05-02T07:00:35.413Z,18.71
2019-05-02T07:01:28.561Z,18.93
2019-05-02T07:02:33.662Z,19.31
2019-05-02T07:03:28.537Z,18.93
2019-05-02T07:04:28.527Z,18.75
2019-05-02T07:05:28.509Z,19.04
2019-05-02T07:06:28.546Z,19.39
2019-05-02T07:07:31.183Z,19.52
2019-05-02T07:08:28.510Z,19.56
2019-05-02T07:09:39.814Z,19.82
2019-05-02T07:10:33.659Z,19.00
2019-05-02T07:11:28.431Z,19.16
2019-05-02T07:12:28.414Z,18.88
2019-05-02T07:13:28.408Z,18.15
2019-05-02T07:14:35.580Z,18.00
2019-05-02T07:16:36.893Z,17.82
2019-05-02T07:17:26.493Z,17.54
2019-05-02T07:19:32.260Z,17.20
2019-05-02T07:20:35.195Z,17.26
2019-05-02T07:22:26.883Z,16.83
2019-05-02T07:23:26.858Z,16.78
2019-05-02T07:25:20.775Z,17.29
2019-05-02T07:26:21.123Z,17.65
2019-05-02T07:28:16.385Z,18.19
2019-05-02T07:29:16.970Z,17.59
2019-05-02T07:31:13.899Z,17.56
2019-05-02T07:32:12.219Z,17.52
2019-05-02T07:34:08.037Z,17.39
2019-05-02T07:35:05.621Z,18.00
2019-05-02T07:36:59.025Z,18.84
2019-05-02T07:38:06.187Z,18.95
2019-05-02T07:39:51.952Z,18.50
2019-05-02T07:40:53.040Z,18.65
2019-05-02T07:42:44.819Z,19.58
2019-05-02T07:43:56.292Z,20.04
2019-05-02T07:45:40.187Z,20.92
2019-05-02T07:46:50.956Z,21.43
2019-05-02T07:48:34.134Z,21.62
2019-05-02T07:49:34.330Z,21.91
2019-05-02T07:50:34.100Z,21.22
2019-05-02T07:51:34.241Z,20.81
2019-05-02T07:52:34.979Z,21.18
2019-05-02T07:53:34.106Z,21.54
2019-05-02T07:54:34.073Z,21.02
2019-05-02T07:55:35.348Z,20.44
2019-05-02T07:56:34.032Z,19.77
2019-05-02T07:57:34.021Z,19.08
2019-05-02T07:58:38.443Z,19.09
2019-05-02T07:59:34.002Z,19.56
2019-05-02T08:00:37.050Z,20.13
2019-05-02T08:01:34.008Z,20.65
2019-05-02T08:02:33.994Z,20.88
2019-05-02T08:03:34.778Z,21.43
2019-05-02T08:04:33.945Z,22.06
2019-05-02T08:05:33.929Z,22.48
2019-05-02T08:06:35.268Z,23.06
2019-05-02T08:07:34.563Z,23.20
2019-05-02T08:08:36.246Z,23.63
2019-05-02T08:09:33.915Z,23.78
2019-05-02T08:10:33.909Z,23.56
2019-05-02T08:11:37.118Z,23.71
2019-05-02T08:12:33.881Z,23.91
2019-05-02T08:13:33.861Z,24.03
2019-05-02T08:14:34.605Z,24.35
2019-05-02T08:15:33.837Z,24.18
2019-05-02T08:16:33.844Z,24.16
2019-05-02T08:17:33.809Z,23.71
2019-05-02T08:18:33.806Z,23.71
2019-05-02T08:19:37.545Z,23.68
2019-05-02T08:20:33.783Z,23.63
2019-05-02T08:21:34.003Z,22.30
2019-05-02T08:22:33.761Z,21.14
2019-05-02T08:23:33.762Z,21.25
2019-05-02T08:24:37.926Z,21.18
2019-05-02T08:25:33.732Z,20.80
2019-05-02T08:26:33.724Z,20.50
2019-05-02T08:27:34.654Z,20.00
2019-05-02T08:28:33.704Z,19.95
2019-05-02T08:29:33.695Z,20.43
2019-05-02T08:30:35.391Z,20.11
2019-05-02T08:31:33.683Z,20.25
2019-05-02T08:32:33.669Z,20.63
2019-05-02T08:33:35.704Z,20.39
2019-05-02T08:34:33.648Z,19.88
2019-05-02T08:35:33.644Z,19.62
2019-05-02T08:36:33.629Z,19.09
2019-05-02T08:37:35.394Z,19.22
2019-05-02T08:38:33.613Z,19.30
2019-05-02T08:39:34.867Z,18.95
2019-05-02T08:40:33.594Z,18.81
2019-05-02T08:41:33.582Z,18.99
2019-05-02T08:42:33.854Z,18.29
2019-05-02T08:43:33.558Z,18.05
2019-05-02T08:44:33.554Z,18.26
2019-05-02T08:45:38.306Z,18.00
2019-05-02T08:46:33.531Z,18.80
2019-05-02T08:47:33.528Z,19.73
2019-05-02T08:48:36.565Z,20.34
2019-05-02T08:49:33.578Z,20.97
2019-05-02T08:50:33.557Z,20.55
2019-05-02T08:51:33.523Z,19.79
2019-05-02T08:52:36.735Z,18.86
2019-05-02T08:53:33.467Z,19.21
2019-05-02T08:54:34.094Z,19.82
2019-05-02T08:55:33.471Z,19.85
2019-05-02T08:56:34.963Z,19.24
2019-05-02T08:57:34.527Z,18.81
2019-05-02T08:58:33.456Z,19.30
2019-05-02T08:59:33.440Z,19.79
2019-05-02T09:00:37.438Z,19.81
2019-05-02T09:01:35.332Z,19.88
2019-05-02T09:02:41.156Z,20.22
2019-05-02T09:03:38.946Z,19.82
2019-05-02T09:04:33.429Z,19.82
2019-05-02T09:05:36.401Z,20.00
2019-05-02T09:06:33.382Z,20.00
2019-05-02T09:07:37.098Z,19.86
2019-05-02T09:08:33.381Z,20.11
2019-05-02T09:09:33.409Z,20.04
2019-05-02T09:10:37.142Z,19.54
2019-05-02T09:11:33.360Z,19.33
2019-05-02T09:12:36.706Z,19.77
2019-05-02T09:13:33.351Z,20.41
2019-05-02T09:16:02.794Z,21.05
2019-05-02T09:16:55.008Z,21.05
2019-05-02T09:19:04.479Z,19.96
2019-05-02T09:20:10.547Z,19.74
2019-05-02T09:21:57.301Z,18.74
2019-05-02T09:22:57.285Z,19.19
2019-05-02T09:25:12.484Z,20.19
2019-05-02T09:25:53.215Z,20.24
2019-05-02T09:27:47.595Z,20.51
2019-05-02T09:28:47.581Z,20.59
2019-05-02T09:30:43.114Z,20.62
2019-05-02T09:31:46.011Z,21.29
2019-05-02T09:32:43.094Z,21.98
2019-05-02T09:33:46.858Z,22.43
2019-05-02T09:34:43.035Z,21.69
2019-05-02T09:35:43.021Z,21.76
2019-05-02T09:36:43.030Z,22.36
2019-05-02T09:37:43.062Z,22.94
2019-05-02T09:38:43.107Z,22.28
2019-05-02T09:39:42.992Z,21.51
2019-05-02T09:40:47.165Z,21.18
2019-05-02T09:41:42.994Z,21.20
2019-05-02T09:42:47.249Z,21.62
2019-05-02T09:43:42.979Z,21.93
2019-05-02T09:44:42.940Z,22.44
2019-05-02T09:45:43.958Z,22.14
2019-05-02T09:46:42.937Z,21.58
2019-05-02T09:47:56.597Z,21.61
2019-05-02T09:48:42.943Z,21.60
2019-05-02T09:49:48.864Z,21.66
2019-05-02T09:50:42.906Z,22.10
2019-05-02T09:51:45.397Z,22.15
2019-05-02T09:52:44.105Z,22.17
2019-05-02T09:53:43.314Z,21.77
2019-05-02T09:54:46.074Z,21.46
2019-05-02T09:55:50.228Z,21.02
2019-05-02T09:56:43.134Z,21.20
2019-05-02T09:57:42.935Z,20.60
2019-05-02T09:58:42.861Z,21.07
2019-05-02T09:59:50.421Z,21.00
2019-05-02T10:00:42.827Z,21.55
2019-05-02T10:01:42.821Z,21.95
2019-05-02T10:02:42.800Z,21.55
2019-05-02T10:03:42.811Z,21.55
2019-05-02T10:04:44.092Z,21.76
2019-05-02T10:05:43.195Z,21.93
2019-05-02T10:06:43.069Z,21.37
2019-05-02T10:07:42.761Z,21.15
2019-05-02T10:08:45.490Z,21.50
2019-05-02T10:09:42.766Z,21.93
2019-05-02T10:10:45.806Z,22.13
2019-05-02T10:11:42.720Z,22.28
2019-05-02T10:12:42.832Z,22.00
2019-05-02T10:13:42.701Z,21.60
2019-05-02T10:14:42.705Z,21.67
2019-05-02T10:15:42.681Z,21.76
2019-05-02T10:16:42.780Z,22.07
2019-05-02T10:17:46.619Z,21.95
2019-05-02T10:18:43.188Z,21.42
2019-05-02T10:19:49.521Z,21.24
2019-05-02T10:20:42.677Z,20.92
2019-05-02T10:21:47.127Z,20.84
2019-05-02T10:22:43.803Z,21.51
2019-05-02T10:23:42.817Z,21.70
2019-05-02T10:24:42.608Z,21.37
2019-05-02T10:25:46.811Z,21.48
2019-05-02T10:26:42.580Z,21.73
2019-05-02T10:27:45.947Z,22.14
2019-05-02T10:28:49.352Z,22.39
2019-05-02T10:29:42.571Z,22.02
2019-05-02T10:30:42.895Z,22.18
2019-05-02T10:31:42.736Z,22.55
2019-05-02T10:32:42.823Z,21.75
2019-05-02T10:33:42.520Z,21.69
2019-05-02T10:34:42.548Z,21.45
2019-05-02T10:35:43.404Z,20.92
2019-05-02T10:36:45.220Z,21.36
2019-05-02T10:37:43.061Z,21.55
2019-05-02T10:38:42.769Z,21.72
2019-05-02T10:39:42.487Z,21.67
2019-05-02T10:40:42.574Z,21.80
2019-05-02T10:41:43.764Z,21.20
2019-05-02T10:42:42.469Z,21.29
2019-05-02T10:43:42.485Z,21.82
2019-05-02T10:44:42.747Z,21.67
2019-05-02T10:45:42.625Z,20.88
2019-05-02T10:46:42.412Z,19.74
2019-05-02T10:47:42.436Z,19.40
2019-05-02T10:48:42.414Z,19.67
2019-05-02T10:49:42.684Z,20.06
2019-05-02T10:50:42.422Z,20.06
2019-05-02T10:51:48.909Z,20.13
2019-05-02T10:52:42.559Z,20.04
2019-05-02T10:53:42.523Z,20.25
2019-05-02T10:54:42.388Z,20.58
2019-05-02T10:55:42.658Z,20.60
2019-05-02T10:56:42.445Z,20.80
2019-05-02T10:57:42.347Z,20.72
2019-05-02T10:58:42.675Z,20.75
2019-05-02T10:59:42.308Z,21.00
2019-05-02T11:00:45.255Z,21.69
2019-05-02T11:01:42.308Z,21.96
2019-05-02T11:02:42.296Z,21.51
2019-05-02T11:03:43.715Z,21.17
2019-05-02T11:04:42.285Z,21.02
2019-05-02T11:05:42.265Z,21.48
2019-05-02T11:06:46.110Z,20.95
2019-05-02T11:07:42.260Z,21.03
2019-05-02T11:08:45.948Z,21.37
2019-05-02T11:09:42.250Z,20.67
2019-05-02T11:10:42.319Z,20.75
2019-05-02T11:11:42.580Z,20.74
2019-05-02T11:12:46.797Z,20.39
2019-05-02T11:13:42.645Z,20.29
2019-05-02T11:14:42.227Z,20.52
2019-05-02T11:15:42.152Z,20.07
2019-05-02T11:16:42.343Z,19.56
2019-05-02T11:17:42.370Z,19.74
2019-05-02T11:18:44.857Z,19.74
2019-05-02T11:19:42.116Z,20.36
2019-05-02T11:20:42.230Z,20.37
2019-05-02T11:21:53.518Z,20.18
2019-05-02T11:22:42.760Z,20.66
2019-05-02T11:23:42.098Z,21.33
2019-05-02T11:24:42.075Z,21.50
2019-05-02T11:25:42.239Z,21.58
2019-05-02T11:26:42.958Z,22.14
2019-05-02T11:27:42.081Z,22.15
2019-05-02T11:28:52.161Z,21.92
2019-05-02T11:30:47.323Z,20.99
2019-05-02T11:31:47.263Z,20.60
2019-05-02T11:33:41.880Z,21.77
2019-05-02T11:34:42.051Z,21.33
2019-05-02T11:36:34.377Z,21.02
2019-05-02T11:37:34.031Z,21.57
2019-05-02T11:39:36.002Z,21.67
2019-05-02T11:40:27.631Z,21.93
2019-05-02T11:42:25.701Z,20.75
2019-05-02T11:43:22.428Z,21.35
2019-05-02T11:45:25.234Z,21.21
2019-05-02T11:46:25.182Z,21.60
2019-05-02T11:48:22.622Z,22.20
2019-05-02T11:49:22.763Z,22.11
2019-05-02T11:51:16.423Z,21.27
2019-05-02T11:52:14.468Z,20.65
2019-05-02T11:53:24.902Z,20.85
2019-05-02T11:54:14.459Z,21.15
2019-05-02T11:55:14.455Z,21.60
2019-05-02T11:56:14.427Z,21.57
2019-05-02T11:57:14.421Z,21.21
2019-05-02T11:58:14.405Z,20.84
2019-05-02T11:59:15.050Z,20.78
2019-05-02T12:00:14.391Z,20.37
2019-05-02T12:01:14.379Z,19.92
2019-05-02T12:02:18.782Z,19.52
2019-05-02T12:03:14.358Z,19.82
2019-05-02T12:04:16.843Z,20.48
2019-05-02T12:05:14.364Z,21.35
2019-05-02T12:06:19.516Z,21.32
2019-05-02T12:07:14.316Z,21.25
2019-05-02T12:08:14.299Z,21.27
2019-05-02T12:09:14.287Z,21.05
2019-05-02T12:10:14.280Z,21.46
2019-05-02T12:11:17.652Z,21.55
2019-05-02T12:12:15.713Z,22.33
2019-05-02T12:13:16.097Z,22.47
2019-05-02T12:14:14.261Z,22.63
2019-05-02T12:15:14.237Z,22.59
2019-05-02T12:16:14.220Z,22.11
2019-05-02T12:17:14.246Z,21.66
2019-05-02T12:18:14.197Z,21.17
2019-05-02T12:19:14.980Z,21.00
2019-05-02T12:20:14.196Z,20.25
2019-05-02T12:21:14.174Z,19.69
2019-05-02T12:22:16.923Z,19.71
2019-05-02T12:23:14.148Z,19.54
2019-05-02T12:24:14.176Z,19.44
2019-05-02T12:25:14.134Z,19.76
2019-05-02T12:26:14.114Z,19.84
2019-05-02T12:27:14.113Z,20.22
2019-05-02T12:28:14.380Z,20.11
2019-05-02T12:29:14.151Z,20.00
2019-05-02T12:30:14.083Z,19.52
2019-05-02T12:31:16.683Z,19.40
2019-05-02T12:32:15.603Z,20.07
2019-05-02T12:33:14.035Z,21.18
2019-05-02T12:34:14.030Z,20.88
2019-05-02T12:35:14.017Z,21.42
2019-05-02T12:36:14.001Z,22.07
2019-05-02T12:37:13.996Z,22.75
2019-05-02T12:38:14.001Z,23.09
2019-05-02T12:39:13.981Z,22.22
2019-05-02T12:40:14.023Z,21.96
2019-05-02T12:41:22.316Z,21.57
2019-05-02T12:42:14.173Z,21.00
2019-05-02T12:43:13.933Z,20.36
2019-05-02T12:44:13.919Z,20.00
2019-05-02T12:45:13.915Z,19.76
2019-05-02T12:46:13.891Z,20.24
2019-05-02T12:47:13.887Z,20.93
2019-05-02T12:48:13.881Z,20.84
2019-05-02T12:49:24.393Z,21.07
2019-05-02T12:50:13.855Z,21.40
2019-05-02T12:51:13.846Z,21.40
2019-05-02T12:52:13.836Z,21.60
2019-05-02T12:53:13.821Z,21.30
2019-05-02T12:54:13.853Z,21.45
2019-05-02T12:55:13.816Z,20.82
2019-05-02T12:56:13.786Z,20.51
2019-05-02T12:57:13.777Z,21.00
2019-05-02T12:58:13.768Z,21.45
2019-05-02T12:59:13.749Z,21.80
2019-05-02T13:00:13.746Z,22.30
2019-05-02T13:01:13.726Z,22.53
2019-05-02T13:02:13.753Z,22.41
2019-05-02T13:03:13.706Z,21.57
2019-05-02T13:04:13.709Z,21.57
2019-05-02T13:05:13.692Z,21.61
2019-05-02T13:06:13.677Z,20.16
2019-05-02T13:07:13.664Z,20.40
2019-05-02T13:08:13.654Z,20.24
2019-05-02T13:09:13.645Z,20.58
2019-05-02T13:10:13.635Z,21.25
2019-05-02T13:11:14.315Z,21.69
2019-05-02T13:12:13.613Z,21.61
2019-05-02T13:13:16.129Z,21.15
2019-05-02T13:14:18.936Z,21.35
2019-05-02T13:15:13.628Z,21.54
2019-05-02T13:16:13.587Z,21.60
2019-05-02T13:17:13.565Z,20.77
2019-05-02T13:18:13.539Z,20.93
2019-05-02T13:19:13.532Z,20.58
2019-05-02T13:20:13.574Z,20.29
2019-05-02T13:21:16.915Z,20.24
2019-05-02T13:22:13.499Z,19.89
2019-05-02T13:23:13.487Z,20.09
2019-05-02T13:24:16.326Z,20.36
2019-05-02T13:25:13.470Z,20.60
2019-05-02T13:26:19.774Z,20.69
2019-05-02T13:27:13.445Z,21.30
2019-05-02T13:28:17.008Z,21.02
2019-05-02T13:29:13.426Z,20.84
2019-05-02T13:30:13.448Z,21.30
2019-05-02T13:31:13.425Z,21.88
2019-05-02T13:32:17.542Z,22.35
2019-05-02T13:33:13.371Z,22.35
2019-05-02T13:34:14.847Z,21.98
2019-05-02T13:35:13.351Z,21.62
2019-05-02T13:36:13.343Z,21.35
2019-05-02T13:37:13.329Z,20.85
2019-05-02T13:38:13.313Z,21.18
2019-05-02T13:39:13.320Z,21.66
2019-05-02T13:40:13.381Z,22.02
2019-05-02T13:41:13.289Z,22.22
2019-05-02T13:42:13.277Z,22.26
2019-05-02T13:43:13.260Z,22.25
2019-05-02T13:44:13.247Z,22.08
2019-05-02T13:45:13.236Z,21.98
2019-05-02T13:46:13.234Z,21.66
2019-05-02T13:47:13.230Z,20.93
2019-05-02T13:48:13.233Z,20.07
2019-05-02T13:49:13.195Z,19.45
2019-05-02T13:50:13.196Z,18.74
2019-05-02T13:51:13.185Z,18.41
2019-05-02T13:52:13.159Z,18.13
2019-05-02T13:53:13.149Z,18.05
2019-05-02T13:54:13.137Z,18.31
2019-05-02T13:55:13.128Z,18.50
2019-05-02T13:56:13.120Z,18.66
2019-05-02T13:57:13.105Z,18.65
2019-05-02T13:58:13.122Z,18.70
2019-05-02T13:59:13.109Z,18.66
2019-05-02T14:00:13.086Z,18.77
2019-05-02T14:01:13.053Z,18.65
2019-05-02T14:02:13.044Z,18.40
2019-05-02T14:03:13.025Z,18.28